createdAt,value
2022-10-31T00:20:05.999Z,20.58
2022-10-31T00:25:09.573Z,24.40
2022-10-31T00:30:11.684Z,18.17
2022-10-31T00:35:13.577Z,19.30
2022-10-31T00:40:17.051Z,19.25
2022-10-31T00:57:03.214Z,22.90
2022-10-31T01:02:06.490Z,18.70
2022-10-31T01:07:08.515Z,25.67
2022-10-31T01:12:43.258Z,21.05
2022-10-31T01:17:46.619Z,19.90
2022-10-31T01:22:48.325Z,25.23
2022-10-31T01:27:50.023Z,30.48
2022-10-31T01:32:53.207Z,23.25
2022-10-31T01:37:55.246Z,26.73
2022-10-31T01:42:57.255Z,25.58
2022-10-31T01:48:00.775Z,29.40
2022-10-31T01:53:03.399Z,23.62
2022-10-31T01:58:08.334Z,25.83
2022-10-31T02:03:11.635Z,20.35
2022-10-31T02:08:17.826Z,19.52
2022-10-31T02:13:20.875Z,23.70
2022-10-31T02:18:27.020Z,23.38
2022-10-31T02:24:16.143Z,23.05
2022-10-31T02:29:43.599Z,29.77
2022-10-31T02:34:54.466Z,31.27
2022-10-31T02:40:10.085Z,24.42
2022-10-31T02:45:17.613Z,30.65
2022-10-31T02:50:24.585Z,24.05
2022-10-31T02:55:55.714Z,20.37
2022-10-31T03:01:25.531Z,27.37
2022-10-31T03:06:45.566Z,24.75
2022-10-31T03:12:04.081Z,35.70
2022-10-31T03:17:09.410Z,24.55
2022-10-31T03:22:20.500Z,24.30
2022-10-31T03:27:25.270Z,24.67
2022-10-31T03:32:32.219Z,27.70
2022-10-31T03:37:37.560Z,24.37
2022-10-31T03:42:42.214Z,30.30
2022-10-31T03:47:45.124Z,32.95
2022-10-31T03:52:54.286Z,34.47
2022-10-31T03:58:01.205Z,40.33
2022-10-31T04:03:10.807Z,33.22
2022-10-31T04:08:18.166Z,26.48
2022-10-31T04:13:24.943Z,33.88
2022-10-31T04:18:27.108Z,32.08
2022-10-31T04:23:30.851Z,29.92
2022-10-31T04:28:32.559Z,32.78
2022-10-31T04:33:34.283Z,34.88
2022-10-31T04:38:37.453Z,36.67
2022-10-31T04:43:39.160Z,37.47
2022-10-31T04:48:40.879Z,28.83
2022-10-31T04:53:44.077Z,30.90
2022-10-31T04:58:45.859Z,30.80
2022-10-31T05:03:47.740Z,25.80
2022-10-31T05:08:50.875Z,27.73
2022-10-31T05:13:52.606Z,25.17
2022-10-31T05:18:54.371Z,22.27
2022-10-31T05:23:57.441Z,25.45
2022-10-31T05:28:59.286Z,31.48
2022-10-31T05:34:00.974Z,26.52
2022-10-31T05:39:04.202Z,28.90
2022-10-31T05:44:06.347Z,26.08
2022-10-31T05:49:08.065Z,27.02
2022-10-31T05:54:15.723Z,27.15
2022-10-31T06:09:45.789Z,22.75
2022-10-31T06:14:47.674Z,26.77
2022-10-31T06:24:53.603Z,24.45
2022-10-31T06:29:55.363Z,20.23
2022-10-31T06:34:57.337Z,27.30
2022-10-31T06:40:00.832Z,28.38
2022-10-31T06:45:02.609Z,28.33
2022-10-31T06:50:05.098Z,25.88
2022-10-31T06:55:08.648Z,22.08
2022-10-31T07:00:11.582Z,24.92
2022-10-31T07:05:13.399Z,28.92
2022-10-31T07:10:16.713Z,26.90
2022-10-31T07:15:18.450Z,24.83
2022-10-31T07:20:20.356Z,22.62
2022-10-31T07:25:23.929Z,25.73
2022-10-31T07:30:25.801Z,26.12
2022-10-31T07:35:28.988Z,25.12
2022-10-31T07:40:32.186Z,27.62
2022-10-31T07:45:34.013Z,26.67
2022-10-31T07:50:35.900Z,43.72
2022-10-31T07:55:39.833Z,39.00
2022-10-31T08:00:49.897Z,46.10
2022-10-31T08:05:51.776Z,37.85
2022-10-31T08:10:58.845Z,39.25
2022-10-31T08:16:02.011Z,30.77
2022-10-31T08:21:09.851Z,30.42
2022-10-31T08:26:16.527Z,28.62
2022-10-31T08:31:33.901Z,29.25
2022-10-31T08:37:05.984Z,28.00
2022-10-31T08:42:21.074Z,22.30
2022-10-31T08:47:22.863Z,31.05
2022-10-31T08:52:38.583Z,31.98
2022-10-31T08:57:48.249Z,30.83
2022-10-31T09:02:58.295Z,28.08
2022-10-31T09:14:12.726Z,28.02
2022-10-31T09:19:14.447Z,27.83
2022-10-31T09:24:16.262Z,26.85
2022-10-31T09:29:19.401Z,27.40
2022-10-31T09:34:21.184Z,28.87
2022-10-31T09:39:26.094Z,28.00
2022-10-31T09:45:10.044Z,32.55
2022-10-31T09:57:08.527Z,26.08
2022-10-31T10:02:49.478Z,32.08
2022-10-31T10:08:07.678Z,28.27
2022-10-31T10:13:30.962Z,38.10
2022-10-31T10:18:43.286Z,25.20
2022-10-31T10:23:57.921Z,34.22
2022-10-31T10:29:43.580Z,30.87
2022-10-31T10:35:27.525Z,28.50
2022-10-31T10:40:42.782Z,37.33
2022-10-31T10:46:12.210Z,25.27
2022-10-31T10:51:39.085Z,23.73
2022-10-31T10:56:58.408Z,29.00
2022-10-31T11:07:35.058Z,29.77
2022-10-31T11:13:10.481Z,18.13
2022-10-31T11:18:45.797Z,21.95
2022-10-31T11:29:18.806Z,19.02
2022-10-31T11:39:43.740Z,16.60
2022-10-31T11:45:10.616Z,28.23
2022-10-31T12:02:09.704Z,19.55
2022-10-31T12:24:19.410Z,20.27
2022-10-31T13:29:37.075Z,22.33
2022-10-31T14:13:34.992Z,21.02
2022-10-31T14:41:07.624Z,18.10
2022-10-31T14:46:53.980Z,21.10
2022-10-31T14:58:41.304Z,14.02
2022-10-31T15:04:24.222Z,17.10
2022-10-31T15:21:42.907Z,16.95
2022-10-31T15:33:48.360Z,25.05
2022-10-31T15:39:39.408Z,16.40
2022-10-31T15:51:04.042Z,15.98
2022-10-31T15:56:08.740Z,14.73
2022-10-31T16:25:42.429Z,18.55
2022-10-31T16:58:32.169Z,20.70
2022-10-31T17:03:34.124Z,15.82
2022-10-31T17:08:35.866Z,17.73
2022-10-31T17:13:39.357Z,17.87
2022-10-31T17:18:41.473Z,15.45
2022-10-31T17:23:43.209Z,26.87
2022-10-31T17:28:46.383Z,21.65
2022-10-31T17:33:48.086Z,16.85
2022-10-31T17:38:49.877Z,15.25
2022-10-31T17:43:56.185Z,17.60
2022-10-31T17:48:58.179Z,16.20
2022-10-31T17:53:59.931Z,17.20
2022-10-31T17:59:13.522Z,17.73
2022-10-31T18:04:21.370Z,18.10
2022-10-31T18:09:23.264Z,15.85
2022-10-31T18:14:31.143Z,16.60
2022-10-31T18:19:33.298Z,25.33
2022-10-31T18:24:35.192Z,18.90
2022-10-31T18:29:38.366Z,22.25
2022-10-31T18:34:40.103Z,20.92
2022-10-31T18:39:41.906Z,17.52
2022-10-31T18:44:45.218Z,27.75
2022-10-31T18:49:46.961Z,18.90
2022-10-31T18:54:48.799Z,16.67
2022-10-31T18:59:51.991Z,27.42
2022-10-31T19:04:53.751Z,23.92
2022-10-31T19:09:55.463Z,26.23
2022-10-31T19:14:58.573Z,26.92
2022-10-31T19:20:03.153Z,24.30
2022-10-31T19:25:07.641Z,22.97
2022-10-31T19:30:14.824Z,16.83
2022-10-31T19:35:16.631Z,16.50
2022-10-31T19:41:05.378Z,15.48
2022-10-31T19:46:22.036Z,19.58
2022-10-31T19:51:29.881Z,15.88
2022-10-31T19:56:31.736Z,17.33
2022-10-31T20:01:34.970Z,22.52
2022-10-31T20:06:42.895Z,27.52
2022-10-31T20:17:27.626Z,27.27
2022-10-31T20:22:32.728Z,19.80
2022-10-31T20:33:02.464Z,23.52
2022-10-31T20:38:04.995Z,38.10
2022-10-31T20:43:06.916Z,31.90
2022-10-31T20:48:12.317Z,32.63
2022-10-31T20:53:14.006Z,33.85
2022-10-31T20:58:16.078Z,30.60
2022-10-31T21:03:19.538Z,28.38
2022-10-31T21:08:21.530Z,35.42
2022-10-31T21:13:23.803Z,30.00
2022-10-31T21:18:29.198Z,30.08
2022-10-31T21:23:31.072Z,24.58
2022-10-31T21:28:32.945Z,26.15
2022-10-31T21:33:44.866Z,23.50
2022-10-31T21:38:49.937Z,31.25
2022-10-31T21:43:53.117Z,20.30
2022-10-31T21:48:56.913Z,22.33
2022-10-31T21:53:59.061Z,24.92
2022-10-31T21:59:00.914Z,22.90
2022-10-31T22:04:04.852Z,29.05
2022-10-31T22:09:08.015Z,22.80
2022-10-31T22:14:13.008Z,23.40
2022-10-31T22:19:16.282Z,25.33
2022-10-31T22:24:18.718Z,27.60
2022-10-31T22:29:21.058Z,25.08
2022-10-31T22:34:24.226Z,21.95
2022-10-31T22:39:26.006Z,25.30
2022-10-31T22:44:27.862Z,21.08
2022-10-31T22:49:30.992Z,22.87
2022-10-31T22:54:32.711Z,22.17
2022-10-31T22:59:34.466Z,25.90
2022-10-31T23:04:37.566Z,23.10
2022-10-31T23:09:39.354Z,27.23
2022-10-31T23:14:41.119Z,23.98
2022-10-31T23:19:48.568Z,26.15
2022-10-31T23:24:50.388Z,23.20
2022-10-31T23:29:53.511Z,24.10
2022-10-31T23:34:58.028Z,18.25
2022-10-31T23:40:00.208Z,29.70
2022-10-31T23:45:01.980Z,30.10
2022-10-31T23:50:05.827Z,24.73
2022-10-31T23:55:07.976Z,30.27
